SAS944 KORD-EKCH
Flight info
| Callsign | SAS944 |
|---|---|
| Flight time | N/A |
| Altitude | 37000 |
| Route | RAYNR DCT BRTMN DCT TAAYZ DCT TVC DCT CANSO DCT TEALS/N0483F390 DCT LAKES DCT PEPKI/M084F390 DCT LIBOR DCT 65N050W 67N040W 67N030W 66N020W/M084F410 64N010W DCT VALDI/N0478F410 DCT TESPI |
| Aircraft | A359/H-SDE2E3GHIJ3J4J5LM1ORWXY/LB1D1 |
Departure
| Time | N/A |
|---|---|
| Airport | Chicago O'Hare International Airport (KORD) |
Arrival
| Time | 2026-04-24 09:36 |
|---|---|
| Airport | Copenhagen Kastrup Airport (EKCH) |
| Time | Latitude | Longitude | Altitude | Speed | Heading |
|---|---|---|---|---|---|
| 2026-04-24 07:43 | 64.04923 | -10.19955 | 39313 ft | 508 kts | 121° |
| 2026-04-24 07:43 | 64.03176 | -10.12945 | 39292 ft | 508 kts | 121° |
| 2026-04-24 07:43 | 63.99671 | -9.98945 | 39309 ft | 508 kts | 121° |
| 2026-04-24 07:44 | 63.96380 | -9.84695 | 39438 ft | 508 kts | 118° |
| 2026-04-24 07:44 | 63.94823 | -9.77490 | 39678 ft | 507 kts | 117° |
| 2026-04-24 07:44 | 63.93271 | -9.70300 | 39934 ft | 505 kts | 118° |
| 2026-04-24 07:45 | 63.91712 | -9.63150 | 40146 ft | 505 kts | 118° |
| 2026-04-24 07:45 | 63.90143 | -9.56047 | 40325 ft | 505 kts | 118° |
| 2026-04-24 07:45 | 63.88552 | -9.48927 | 40494 ft | 505 kts | 118° |
| 2026-04-24 07:45 | 63.86963 | -9.41881 | 40685 ft | 504 kts | 118° |
| 2026-04-24 07:46 | 63.85352 | -9.34779 | 40857 ft | 504 kts | 119° |
| 2026-04-24 07:46 | 63.83739 | -9.27700 | 41025 ft | 504 kts | 119° |
| 2026-04-24 07:46 | 63.82127 | -9.20646 | 41202 ft | 504 kts | 119° |
| 2026-04-24 07:46 | 63.80516 | -9.13619 | 41297 ft | 506 kts | 119° |
| 2026-04-24 07:47 | 63.77242 | -8.99409 | 41308 ft | 509 kts | 119° |
| 2026-04-24 07:47 | 63.73962 | -8.85249 | 41308 ft | 509 kts | 119° |
| 2026-04-24 07:48 | 63.70666 | -8.71109 | 41312 ft | 509 kts | 119° |
| 2026-04-24 07:48 | 63.67359 | -8.57017 | 41312 ft | 509 kts | 120° |
| 2026-04-24 07:49 | 63.64034 | -8.42940 | 41312 ft | 509 kts | 120° |
| 2026-04-24 07:49 | 63.60720 | -8.29002 | 41313 ft | 509 kts | 120° |
| 2026-04-24 07:50 | 63.57366 | -8.14984 | 41313 ft | 509 kts | 120° |
| 2026-04-24 07:50 | 63.54011 | -8.01052 | 41316 ft | 509 kts | 120° |
| 2026-04-24 07:51 | 63.50625 | -7.87088 | 41319 ft | 509 kts | 120° |
| 2026-04-24 07:51 | 63.47231 | -7.73171 | 41320 ft | 509 kts | 120° |
| 2026-04-24 07:52 | 63.43827 | -7.59302 | 41323 ft | 509 kts | 120° |
| 2026-04-24 07:52 | 63.40404 | -7.45444 | 41322 ft | 509 kts | 120° |
| 2026-04-24 07:53 | 63.36968 | -7.31618 | 41328 ft | 509 kts | 121° |
| 2026-04-24 07:53 | 63.33521 | -7.17839 | 41326 ft | 509 kts | 121° |
| 2026-04-24 07:54 | 63.30058 | -7.04082 | 41329 ft | 509 kts | 121° |
| 2026-04-24 07:54 | 63.26584 | -6.90369 | 41329 ft | 509 kts | 121° |
| 2026-04-24 07:55 | 63.23098 | -6.76688 | 41329 ft | 509 kts | 121° |
| 2026-04-24 07:55 | 63.19595 | -6.63029 | 41328 ft | 509 kts | 121° |
| 2026-04-24 07:56 | 63.16082 | -6.49412 | 41330 ft | 509 kts | 121° |
| 2026-04-24 07:56 | 63.12557 | -6.35836 | 41330 ft | 509 kts | 122° |
| 2026-04-24 07:57 | 63.09017 | -6.22284 | 41333 ft | 509 kts | 122° |
| 2026-04-24 07:57 | 63.05461 | -6.08750 | 41333 ft | 509 kts | 122° |
| 2026-04-24 07:58 | 63.01897 | -5.95265 | 41331 ft | 509 kts | 122° |
| 2026-04-24 07:58 | 62.98343 | -5.81902 | 41333 ft | 509 kts | 122° |
| 2026-04-24 07:59 | 62.94752 | -5.68482 | 41338 ft | 510 kts | 122° |
| 2026-04-24 07:59 | 62.91143 | -5.55079 | 41339 ft | 509 kts | 122° |
| 2026-04-24 08:00 | 62.87526 | -5.41722 | 41338 ft | 510 kts | 122° |
| 2026-04-24 08:00 | 62.83889 | -5.28370 | 41337 ft | 510 kts | 122° |
| 2026-04-24 08:01 | 62.80246 | -5.15074 | 41339 ft | 510 kts | 123° |
| 2026-04-24 08:01 | 62.76591 | -5.01815 | 41340 ft | 510 kts | 123° |
| 2026-04-24 08:02 | 62.72923 | -4.88585 | 41341 ft | 510 kts | 123° |
| 2026-04-24 08:02 | 62.69235 | -4.75361 | 41339 ft | 510 kts | 123° |
| 2026-04-24 08:03 | 62.65537 | -4.62180 | 41341 ft | 510 kts | 123° |
| 2026-04-24 08:03 | 62.61830 | -4.49044 | 41342 ft | 510 kts | 123° |
| 2026-04-24 08:04 | 62.58111 | -4.35940 | 41341 ft | 510 kts | 123° |
| 2026-04-24 08:04 | 62.54376 | -4.22861 | 41341 ft | 510 kts | 123° |
| 2026-04-24 08:05 | 62.50635 | -4.09833 | 41345 ft | 510 kts | 124° |
| 2026-04-24 08:05 | 62.46881 | -3.96834 | 41341 ft | 510 kts | 124° |
| 2026-04-24 08:06 | 62.43111 | -3.83852 | 41344 ft | 510 kts | 124° |
| 2026-04-24 08:06 | 62.39359 | -3.71007 | 41342 ft | 510 kts | 124° |
| 2026-04-24 08:07 | 62.35564 | -3.58089 | 41344 ft | 510 kts | 124° |
| 2026-04-24 08:07 | 62.31760 | -3.45214 | 41344 ft | 510 kts | 124° |
| 2026-04-24 08:08 | 62.27949 | -3.32386 | 41345 ft | 510 kts | 124° |
| 2026-04-24 08:09 | 62.22195 | -3.13156 | 41349 ft | 510 kts | 124° |
| 2026-04-24 08:09 | 62.18346 | -3.00385 | 41348 ft | 510 kts | 124° |
| 2026-04-24 08:10 | 62.14485 | -2.87639 | 41348 ft | 510 kts | 125° |
| 2026-04-24 08:10 | 62.10608 | -2.74916 | 41350 ft | 511 kts | 125° |
| 2026-04-24 08:11 | 62.06726 | -2.62244 | 41349 ft | 511 kts | 125° |
| 2026-04-24 08:11 | 62.02824 | -2.49580 | 41350 ft | 511 kts | 125° |
| 2026-04-24 08:12 | 61.98912 | -2.36955 | 41347 ft | 511 kts | 125° |
| 2026-04-24 08:12 | 61.94987 | -2.24356 | 41349 ft | 511 kts | 125° |
| 2026-04-24 08:13 | 61.91044 | -2.11767 | 41349 ft | 512 kts | 125° |
| 2026-04-24 08:13 | 61.87092 | -1.99219 | 41348 ft | 512 kts | 126° |
| 2026-04-24 08:14 | 61.83121 | -1.86679 | 41349 ft | 512 kts | 126° |
| 2026-04-24 08:14 | 61.79143 | -1.74187 | 41347 ft | 513 kts | 126° |
| 2026-04-24 08:15 | 61.75176 | -1.61796 | 41347 ft | 513 kts | 126° |
| 2026-04-24 08:15 | 61.71165 | -1.49333 | 41351 ft | 513 kts | 126° |
| 2026-04-24 08:16 | 61.67143 | -1.36906 | 41348 ft | 513 kts | 126° |
| 2026-04-24 08:16 | 61.63107 | -1.24500 | 41350 ft | 514 kts | 126° |
| 2026-04-24 08:17 | 61.59061 | -1.12133 | 41350 ft | 514 kts | 126° |
| 2026-04-24 08:17 | 61.54999 | -0.99782 | 41350 ft | 514 kts | 126° |
| 2026-04-24 08:18 | 61.50933 | -0.87487 | 41349 ft | 514 kts | 126° |
| 2026-04-24 08:18 | 61.46837 | -0.75167 | 41349 ft | 515 kts | 126° |
| 2026-04-24 08:19 | 61.42739 | -0.62906 | 41349 ft | 515 kts | 126° |
| 2026-04-24 08:19 | 61.38625 | -0.50663 | 41349 ft | 515 kts | 126° |
| 2026-04-24 08:20 | 61.34496 | -0.38437 | 41349 ft | 515 kts | 127° |
| 2026-04-24 08:20 | 61.30360 | -0.26255 | 41346 ft | 516 kts | 127° |
| 2026-04-24 08:21 | 61.26206 | -0.14086 | 41348 ft | 516 kts | 127° |
| 2026-04-24 08:21 | 61.22038 | -0.01941 | 41346 ft | 516 kts | 127° |
| 2026-04-24 08:22 | 61.17654 | 0.09828 | 41345 ft | 516 kts | 131° |
| 2026-04-24 08:22 | 61.13027 | 0.21194 | 41347 ft | 516 kts | 131° |
| 2026-04-24 08:23 | 61.08450 | 0.32474 | 41347 ft | 516 kts | 131° |
| 2026-04-24 08:23 | 61.03854 | 0.43832 | 41347 ft | 516 kts | 131° |
| 2026-04-24 08:24 | 60.99247 | 0.55191 | 41347 ft | 516 kts | 131° |
| 2026-04-24 08:24 | 60.94634 | 0.66518 | 41345 ft | 516 kts | 131° |
| 2026-04-24 08:25 | 60.90008 | 0.77819 | 41345 ft | 517 kts | 131° |
| 2026-04-24 08:25 | 60.85372 | 0.89092 | 41346 ft | 517 kts | 131° |
| 2026-04-24 08:26 | 60.81484 | 0.98504 | 41347 ft | 517 kts | 131° |
| 2026-04-24 08:26 | 60.76072 | 1.11540 | 41345 ft | 517 kts | 131° |
| 2026-04-24 08:27 | 60.71408 | 1.22714 | 41343 ft | 517 kts | 131° |
| 2026-04-24 08:27 | 60.67518 | 1.31993 | 41344 ft | 517 kts | 132° |
| 2026-04-24 08:28 | 60.62838 | 1.43107 | 41344 ft | 517 kts | 132° |
| 2026-04-24 08:28 | 60.58140 | 1.54208 | 41343 ft | 518 kts | 132° |
| 2026-04-24 08:29 | 60.53436 | 1.65272 | 41342 ft | 517 kts | 132° |
| 2026-04-24 08:29 | 60.48718 | 1.76312 | 41342 ft | 517 kts | 132° |
| 2026-04-24 08:30 | 60.44000 | 1.87301 | 41341 ft | 517 kts | 132° |
| 2026-04-24 08:30 | 60.39262 | 1.98283 | 41336 ft | 518 kts | 132° |
| 2026-04-24 08:31 | 60.34515 | 2.09230 | 41339 ft | 518 kts | 132° |
| 2026-04-24 08:31 | 60.29759 | 2.20150 | 41336 ft | 518 kts | 133° |
| 2026-04-24 08:32 | 60.24988 | 2.31048 | 41338 ft | 518 kts | 133° |
| 2026-04-24 08:32 | 60.20245 | 2.41833 | 41337 ft | 518 kts | 133° |
| 2026-04-24 08:33 | 60.15460 | 2.52662 | 41333 ft | 518 kts | 133° |
| 2026-04-24 08:33 | 60.10662 | 2.63468 | 41332 ft | 518 kts | 133° |
| 2026-04-24 08:34 | 60.05860 | 2.74232 | 41327 ft | 518 kts | 133° |
| 2026-04-24 08:34 | 60.01041 | 2.84985 | 41327 ft | 519 kts | 133° |
| 2026-04-24 08:35 | 59.96220 | 2.95689 | 41330 ft | 519 kts | 133° |
| 2026-04-24 08:35 | 59.91397 | 3.06403 | 41331 ft | 519 kts | 132° |
| 2026-04-24 08:36 | 59.86795 | 3.17476 | 41326 ft | 519 kts | 130° |
| 2026-04-24 08:36 | 59.82235 | 3.28608 | 41327 ft | 519 kts | 130° |
| 2026-04-24 08:37 | 59.77655 | 3.39677 | 41327 ft | 519 kts | 130° |
| 2026-04-24 08:37 | 59.73046 | 3.50739 | 41324 ft | 519 kts | 130° |
| 2026-04-24 08:38 | 59.68440 | 3.61738 | 41324 ft | 519 kts | 131° |
| 2026-04-24 08:38 | 59.63821 | 3.72711 | 41319 ft | 519 kts | 131° |
| 2026-04-24 08:39 | 59.59183 | 3.83675 | 41315 ft | 519 kts | 131° |
| 2026-04-24 08:39 | 59.54544 | 3.94592 | 41315 ft | 519 kts | 131° |
| 2026-04-24 08:40 | 59.49895 | 4.05481 | 41313 ft | 519 kts | 131° |
| 2026-04-24 08:40 | 59.45237 | 4.16341 | 41311 ft | 519 kts | 131° |
| 2026-04-24 08:41 | 59.40574 | 4.27159 | 41309 ft | 519 kts | 131° |
| 2026-04-24 08:41 | 59.35896 | 4.37963 | 41306 ft | 519 kts | 131° |
| 2026-04-24 08:42 | 59.31206 | 4.48744 | 41300 ft | 519 kts | 132° |
| 2026-04-24 08:42 | 59.26509 | 4.59491 | 41294 ft | 520 kts | 132° |
| 2026-04-24 08:43 | 59.21803 | 4.70209 | 41292 ft | 520 kts | 132° |
| 2026-04-24 08:43 | 59.17085 | 4.80904 | 41282 ft | 520 kts | 132° |
| 2026-04-24 08:44 | 59.12359 | 4.91567 | 41281 ft | 520 kts | 132° |
| 2026-04-24 08:44 | 59.07633 | 5.02183 | 41280 ft | 520 kts | 132° |
| 2026-04-24 08:45 | 59.02881 | 5.12807 | 41278 ft | 520 kts | 132° |
| 2026-04-24 08:45 | 58.98129 | 5.23385 | 41271 ft | 520 kts | 133° |
| 2026-04-24 08:46 | 58.93362 | 5.33946 | 41265 ft | 520 kts | 133° |
| 2026-04-24 08:46 | 58.88592 | 5.44464 | 41265 ft | 520 kts | 133° |
| 2026-04-24 08:47 | 58.83813 | 5.54956 | 41264 ft | 520 kts | 133° |
| 2026-04-24 08:47 | 58.79020 | 5.65431 | 41265 ft | 520 kts | 133° |
| 2026-04-24 08:48 | 58.74222 | 5.75869 | 41261 ft | 520 kts | 133° |
| 2026-04-24 08:48 | 58.69412 | 5.86286 | 41254 ft | 520 kts | 133° |
| 2026-04-24 08:49 | 58.64594 | 5.96672 | 41242 ft | 521 kts | 133° |
| 2026-04-24 08:49 | 58.59765 | 6.07038 | 41219 ft | 521 kts | 133° |
| 2026-04-24 08:50 | 58.54927 | 6.17374 | 41206 ft | 521 kts | 133° |
| 2026-04-24 08:50 | 58.50085 | 6.27676 | 41200 ft | 522 kts | 133° |
| 2026-04-24 08:51 | 58.45214 | 6.37990 | 41184 ft | 521 kts | 133° |
| 2026-04-24 08:51 | 58.40346 | 6.48254 | 41171 ft | 521 kts | 133° |
| 2026-04-24 08:52 | 58.35475 | 6.58477 | 41166 ft | 520 kts | 133° |
| 2026-04-24 08:52 | 58.30645 | 6.68573 | 41156 ft | 520 kts | 134° |
| 2026-04-24 08:53 | 58.25768 | 6.78720 | 41156 ft | 520 kts | 134° |
| 2026-04-24 08:53 | 58.20881 | 6.88843 | 41153 ft | 519 kts | 134° |
| 2026-04-24 08:54 | 58.15996 | 6.98918 | 41149 ft | 518 kts | 134° |
| 2026-04-24 08:54 | 58.11117 | 7.08939 | 41148 ft | 517 kts | 134° |
| 2026-04-24 08:55 | 58.06242 | 7.18906 | 41147 ft | 516 kts | 134° |
| 2026-04-24 08:55 | 58.01362 | 7.28840 | 41146 ft | 515 kts | 134° |
| 2026-04-24 08:56 | 57.96493 | 7.38710 | 41144 ft | 514 kts | 134° |
| 2026-04-24 08:56 | 57.91614 | 7.48558 | 41144 ft | 513 kts | 134° |
| 2026-04-24 08:57 | 57.86741 | 7.58349 | 41144 ft | 513 kts | 135° |
| 2026-04-24 08:57 | 57.81850 | 7.68136 | 41142 ft | 513 kts | 135° |
| 2026-04-24 08:58 | 57.76957 | 7.77886 | 41144 ft | 514 kts | 135° |
| 2026-04-24 08:58 | 57.72050 | 7.87622 | 41149 ft | 514 kts | 135° |
| 2026-04-24 08:59 | 57.67132 | 7.97340 | 41152 ft | 515 kts | 135° |
| 2026-04-24 08:59 | 57.62199 | 8.07045 | 41154 ft | 516 kts | 135° |
| 2026-04-24 09:00 | 57.57248 | 8.16745 | 41151 ft | 516 kts | 135° |
| 2026-04-24 09:00 | 57.52289 | 8.26420 | 41151 ft | 517 kts | 135° |
| 2026-04-24 09:01 | 57.47340 | 8.36034 | 41151 ft | 518 kts | 135° |
| 2026-04-24 09:01 | 57.43272 | 8.43908 | 41148 ft | 518 kts | 135° |
| 2026-04-24 09:02 | 57.38278 | 8.53538 | 41147 ft | 518 kts | 135° |
| 2026-04-24 09:02 | 57.33283 | 8.63128 | 41146 ft | 518 kts | 136° |
| 2026-04-24 09:03 | 57.28265 | 8.72723 | 41147 ft | 518 kts | 136° |
| 2026-04-24 09:03 | 57.23246 | 8.82279 | 41148 ft | 518 kts | 136° |
| 2026-04-24 09:04 | 57.18223 | 8.91805 | 41141 ft | 517 kts | 136° |
| 2026-04-24 09:04 | 57.13196 | 9.01297 | 41137 ft | 517 kts | 136° |
| 2026-04-24 09:05 | 57.08172 | 9.10745 | 41141 ft | 516 kts | 136° |
| 2026-04-24 09:05 | 57.03145 | 9.20160 | 41130 ft | 516 kts | 136° |
| 2026-04-24 09:06 | 56.98110 | 9.29549 | 41119 ft | 516 kts | 136° |
| 2026-04-24 09:06 | 56.95591 | 9.34234 | 40978 ft | 515 kts | 136° |
| 2026-04-24 09:06 | 56.93082 | 9.38889 | 40734 ft | 512 kts | 136° |
| 2026-04-24 09:06 | 56.90577 | 9.43528 | 40488 ft | 512 kts | 137° |
| 2026-04-24 09:07 | 56.88067 | 9.48166 | 40243 ft | 513 kts | 137° |
| 2026-04-24 09:07 | 56.85558 | 9.52794 | 39987 ft | 513 kts | 137° |
| 2026-04-24 09:07 | 56.80528 | 9.62044 | 38786 ft | 516 kts | 137° |
| 2026-04-24 09:08 | 56.77990 | 9.66695 | 37987 ft | 518 kts | 137° |
| 2026-04-24 09:08 | 56.75440 | 9.71359 | 37256 ft | 519 kts | 137° |
| 2026-04-24 09:08 | 56.72889 | 9.76017 | 36508 ft | 521 kts | 137° |
| 2026-04-24 09:08 | 56.70320 | 9.80698 | 35738 ft | 523 kts | 137° |
| 2026-04-24 09:09 | 56.67749 | 9.85375 | 35094 ft | 522 kts | 137° |
| 2026-04-24 09:09 | 56.65182 | 9.90034 | 34517 ft | 520 kts | 137° |
| 2026-04-24 09:09 | 56.62624 | 9.94669 | 33902 ft | 518 kts | 137° |
| 2026-04-24 09:09 | 56.60076 | 9.99276 | 33284 ft | 516 kts | 137° |
| 2026-04-24 09:10 | 56.57539 | 10.03852 | 32697 ft | 512 kts | 137° |
| 2026-04-24 09:10 | 56.55018 | 10.08390 | 32122 ft | 509 kts | 137° |
| 2026-04-24 09:10 | 56.52515 | 10.12888 | 31549 ft | 507 kts | 137° |
| 2026-04-24 09:10 | 56.50853 | 10.15870 | 31176 ft | 505 kts | 137° |
| 2026-04-24 09:11 | 56.47526 | 10.21828 | 30403 ft | 502 kts | 137° |
| 2026-04-24 09:11 | 56.45048 | 10.26256 | 29771 ft | 500 kts | 137° |
| 2026-04-24 09:11 | 56.43411 | 10.29176 | 29370 ft | 497 kts | 137° |
| 2026-04-24 09:11 | 56.40133 | 10.35018 | 28607 ft | 492 kts | 137° |
| 2026-04-24 09:12 | 56.38526 | 10.37875 | 28239 ft | 489 kts | 137° |
| 2026-04-24 09:12 | 56.36113 | 10.42160 | 27659 ft | 485 kts | 137° |
| 2026-04-24 09:12 | 56.33713 | 10.46410 | 27090 ft | 482 kts | 137° |
| 2026-04-24 09:12 | 56.31329 | 10.50621 | 26524 ft | 479 kts | 137° |
| 2026-04-24 09:13 | 56.28957 | 10.54803 | 26008 ft | 475 kts | 137° |
| 2026-04-24 09:13 | 56.26607 | 10.58938 | 25488 ft | 471 kts | 137° |
| 2026-04-24 09:13 | 56.24281 | 10.63027 | 25173 ft | 462 kts | 137° |
| 2026-04-24 09:13 | 56.22017 | 10.67003 | 25100 ft | 448 kts | 137° |
| 2026-04-24 09:14 | 56.19812 | 10.70860 | 25103 ft | 440 kts | 138° |
| 2026-04-24 09:14 | 56.17614 | 10.74692 | 25106 ft | 441 kts | 138° |
| 2026-04-24 09:14 | 56.15412 | 10.78525 | 25112 ft | 442 kts | 138° |
| 2026-04-24 09:14 | 56.13216 | 10.82346 | 24965 ft | 437 kts | 138° |
| 2026-04-24 09:15 | 56.11032 | 10.86139 | 24248 ft | 441 kts | 138° |
| 2026-04-24 09:15 | 56.08814 | 10.89986 | 23485 ft | 446 kts | 137° |
| 2026-04-24 09:15 | 56.06579 | 10.93862 | 22762 ft | 447 kts | 137° |
| 2026-04-24 09:15 | 56.04348 | 10.97727 | 22096 ft | 446 kts | 137° |
| 2026-04-24 09:16 | 56.02126 | 11.01571 | 21486 ft | 444 kts | 137° |
| 2026-04-24 09:16 | 55.99912 | 11.05393 | 20886 ft | 441 kts | 137° |
| 2026-04-24 09:16 | 55.97714 | 11.09179 | 20333 ft | 437 kts | 137° |
| 2026-04-24 09:16 | 55.95532 | 11.12930 | 19784 ft | 434 kts | 136° |
| 2026-04-24 09:17 | 55.93363 | 11.16652 | 19263 ft | 430 kts | 136° |
| 2026-04-24 09:17 | 55.91216 | 11.20330 | 18746 ft | 427 kts | 136° |
| 2026-04-24 09:17 | 55.89085 | 11.23974 | 18189 ft | 423 kts | 136° |
| 2026-04-24 09:17 | 55.86970 | 11.27587 | 17603 ft | 420 kts | 136° |
| 2026-04-24 09:18 | 55.84903 | 11.31112 | 17001 ft | 417 kts | 136° |
| 2026-04-24 09:18 | 55.82814 | 11.34669 | 16598 ft | 410 kts | 136° |
| 2026-04-24 09:18 | 55.80781 | 11.38125 | 16340 ft | 398 kts | 136° |
| 2026-04-24 09:18 | 55.78823 | 11.41486 | 16124 ft | 387 kts | 133° |
| 2026-04-24 09:19 | 55.77345 | 11.45356 | 15870 ft | 372 kts | 110° |
| 2026-04-24 09:19 | 55.76728 | 11.49696 | 15654 ft | 356 kts | 95° |
| 2026-04-24 09:19 | 55.76431 | 11.53995 | 15467 ft | 346 kts | 92° |
| 2026-04-24 09:19 | 55.76157 | 11.58191 | 15176 ft | 340 kts | 93° |
| 2026-04-24 09:20 | 55.75866 | 11.62336 | 14820 ft | 337 kts | 93° |
| 2026-04-24 09:20 | 55.75457 | 11.67826 | 14369 ft | 332 kts | 93° |
| 2026-04-24 09:20 | 55.75251 | 11.70507 | 14117 ft | 331 kts | 94° |
| 2026-04-24 09:20 | 55.74933 | 11.74557 | 13667 ft | 331 kts | 94° |
| 2026-04-24 09:21 | 55.74613 | 11.78603 | 13196 ft | 330 kts | 94° |
| 2026-04-24 09:21 | 55.74293 | 11.82628 | 12734 ft | 329 kts | 94° |
| 2026-04-24 09:21 | 55.73965 | 11.86639 | 12278 ft | 328 kts | 94° |
| 2026-04-24 09:21 | 55.73638 | 11.90648 | 11778 ft | 328 kts | 94° |
| 2026-04-24 09:22 | 55.73308 | 11.94654 | 11288 ft | 328 kts | 94° |
| 2026-04-24 09:22 | 55.72847 | 11.98632 | 10786 ft | 332 kts | 106° |
| 2026-04-24 09:22 | 55.71728 | 12.02132 | 10336 ft | 336 kts | 121° |
| 2026-04-24 09:22 | 55.70806 | 12.05840 | 9841 ft | 326 kts | 97° |
| 2026-04-24 09:23 | 55.70893 | 12.09733 | 9339 ft | 311 kts | 69° |
| 2026-04-24 09:23 | 55.71692 | 12.13201 | 9112 ft | 298 kts | 62° |
| 2026-04-24 09:23 | 55.72407 | 12.16570 | 9072 ft | 286 kts | 68° |
| 2026-04-24 09:23 | 55.72909 | 12.19977 | 9077 ft | 287 kts | 73° |
| 2026-04-24 09:24 | 55.73259 | 12.23476 | 9083 ft | 287 kts | 76° |
| 2026-04-24 09:24 | 55.73822 | 12.26809 | 8942 ft | 279 kts | 61° |
| 2026-04-24 09:24 | 55.74721 | 12.29829 | 8533 ft | 275 kts | 56° |
| 2026-04-24 09:24 | 55.75680 | 12.32773 | 8140 ft | 276 kts | 57° |
| 2026-04-24 09:25 | 55.76367 | 12.35971 | 7763 ft | 281 kts | 73° |
| 2026-04-24 09:25 | 55.76524 | 12.39394 | 7519 ft | 273 kts | 85° |
| 2026-04-24 09:25 | 55.76471 | 12.42671 | 7267 ft | 258 kts | 87° |
| 2026-04-24 09:25 | 55.76384 | 12.45766 | 7076 ft | 244 kts | 88° |
| 2026-04-24 09:26 | 55.76540 | 12.48617 | 6849 ft | 222 kts | 66° |
| 2026-04-24 09:26 | 55.77145 | 12.51033 | 6615 ft | 208 kts | 56° |
| 2026-04-24 09:26 | 55.77850 | 12.53221 | 6305 ft | 201 kts | 50° |
| 2026-04-24 09:26 | 55.78687 | 12.55181 | 5989 ft | 199 kts | 46° |
| 2026-04-24 09:27 | 55.79554 | 12.57087 | 5769 ft | 198 kts | 45° |
| 2026-04-24 09:27 | 55.80416 | 12.58987 | 5553 ft | 196 kts | 45° |
| 2026-04-24 09:27 | 55.81270 | 12.60881 | 5294 ft | 196 kts | 45° |
| 2026-04-24 09:27 | 55.82124 | 12.62770 | 5055 ft | 195 kts | 45° |
| 2026-04-24 09:28 | 55.82973 | 12.64647 | 4999 ft | 195 kts | 45° |
| 2026-04-24 09:28 | 55.83800 | 12.66492 | 4984 ft | 186 kts | 45° |
| 2026-04-24 09:28 | 55.84602 | 12.68295 | 4996 ft | 185 kts | 45° |
| 2026-04-24 09:28 | 55.85397 | 12.70085 | 4817 ft | 183 kts | 45° |
| 2026-04-24 09:29 | 55.86182 | 12.71858 | 4571 ft | 182 kts | 45° |
| 2026-04-24 09:29 | 55.86968 | 12.73630 | 4290 ft | 183 kts | 45° |
| 2026-04-24 09:29 | 55.87528 | 12.75681 | 4033 ft | 192 kts | 76° |
| 2026-04-24 09:29 | 55.87295 | 12.78065 | 3993 ft | 204 kts | 113° |
| 2026-04-24 09:30 | 55.86412 | 12.80071 | 3996 ft | 208 kts | 131° |
| 2026-04-24 09:30 | 55.85002 | 12.82437 | 4016 ft | 209 kts | 135° |
| 2026-04-24 09:30 | 55.84291 | 12.83593 | 3892 ft | 207 kts | 135° |
| 2026-04-24 09:30 | 55.83229 | 12.85323 | 3612 ft | 207 kts | 135° |
| 2026-04-24 09:31 | 55.82172 | 12.87054 | 3338 ft | 206 kts | 135° |
| 2026-04-24 09:31 | 55.81121 | 12.88768 | 3077 ft | 204 kts | 137° |
| 2026-04-24 09:31 | 55.79862 | 12.89856 | 3000 ft | 204 kts | 170° |
| 2026-04-24 09:31 | 55.78454 | 12.89996 | 2995 ft | 203 kts | 183° |
| 2026-04-24 09:32 | 55.77126 | 12.89330 | 2995 ft | 199 kts | 214° |
| 2026-04-24 09:32 | 55.76066 | 12.87853 | 2999 ft | 195 kts | 227° |
| 2026-04-24 09:32 | 55.75072 | 12.86231 | 3016 ft | 193 kts | 227° |
| 2026-04-24 09:32 | 55.74058 | 12.84622 | 3007 ft | 194 kts | 227° |
| 2026-04-24 09:33 | 55.73035 | 12.83035 | 2840 ft | 195 kts | 226° |
| 2026-04-24 09:33 | 55.72021 | 12.81487 | 2566 ft | 195 kts | 226° |
| 2026-04-24 09:33 | 55.71006 | 12.79907 | 2285 ft | 193 kts | 226° |
| 2026-04-24 09:33 | 55.70007 | 12.78345 | 2022 ft | 189 kts | 225° |
| 2026-04-24 09:34 | 55.69033 | 12.76842 | 1770 ft | 181 kts | 225° |
| 2026-04-24 09:34 | 55.68115 | 12.75420 | 1502 ft | 170 kts | 225° |
| 2026-04-24 09:34 | 55.67249 | 12.74078 | 1295 ft | 160 kts | 226° |
| 2026-04-24 09:34 | 55.66438 | 12.72812 | 1074 ft | 152 kts | 226° |
| 2026-04-24 09:35 | 55.65647 | 12.71579 | 852 ft | 150 kts | 226° |
| 2026-04-24 09:35 | 55.64870 | 12.70345 | 641 ft | 151 kts | 224° |
| 2026-04-24 09:35 | 55.64091 | 12.69098 | 469 ft | 151 kts | 222° |
| 2026-04-24 09:35 | 55.63263 | 12.67910 | 293 ft | 154 kts | 221° |
| 2026-04-24 09:36 | 55.62479 | 12.66668 | 66 ft | 148 kts | 220° |
| 2026-04-24 09:36 | 55.61763 | 12.65531 | 30 ft | 124 kts | 220° |
| 2026-04-24 09:36 | 55.61310 | 12.64805 | 31 ft | 50 kts | 238° |
| 2026-04-24 09:36 | 55.61240 | 12.64523 | 30 ft | 18 kts | 250° |
| 2026-04-24 09:37 | 55.61197 | 12.64303 | 30 ft | 14 kts | 256° |
| 2026-04-24 09:37 | 55.61196 | 12.64183 | 30 ft | 6 kts | 288° |
| 2026-04-24 09:37 | 55.61199 | 12.64171 | 30 ft | 0 kts | 294° |
| 2026-04-24 09:37 | 55.61201 | 12.64166 | 30 ft | 4 kts | 296° |
| 2026-04-24 09:38 | 55.61247 | 12.64117 | 30 ft | 10 kts | 352° |
| 2026-04-24 09:38 | 55.61329 | 12.64164 | 30 ft | 15 kts | 31° |
| 2026-04-24 09:38 | 55.61416 | 12.64266 | 30 ft | 17 kts | 33° |
| 2026-04-24 09:38 | 55.61529 | 12.64399 | 30 ft | 22 kts | 33° |
| 2026-04-24 09:39 | 55.61654 | 12.64540 | 30 ft | 17 kts | 34° |
| 2026-04-24 09:39 | 55.61736 | 12.64636 | 30 ft | 15 kts | 32° |
| 2026-04-24 09:39 | 55.61836 | 12.64749 | 30 ft | 19 kts | 32° |
| 2026-04-24 09:39 | 55.61944 | 12.64871 | 30 ft | 14 kts | 33° |
| 2026-04-24 09:40 | 55.62037 | 12.64978 | 30 ft | 17 kts | 33° |
| 2026-04-24 09:40 | 55.62143 | 12.65100 | 30 ft | 19 kts | 33° |
| 2026-04-24 09:40 | 55.62244 | 12.65147 | 30 ft | 14 kts | 328° |
| 2026-04-24 09:40 | 55.62304 | 12.65001 | 30 ft | 17 kts | 303° |
| 2026-04-24 09:41 | 55.62365 | 12.64838 | 30 ft | 13 kts | 306° |
| 2026-04-24 09:41 | 55.62453 | 12.64775 | 30 ft | 15 kts | 355° |
| 2026-04-24 09:41 | 55.62528 | 12.64775 | 30 ft | 2 kts | 13° |
| 2026-04-24 09:42 | 55.62540 | 12.64789 | 30 ft | 5 kts | 38° |
| 2026-04-24 09:42 | 55.62556 | 12.64861 | 30 ft | 6 kts | 75° |
| 2026-04-24 09:42 | 55.62556 | 12.64874 | 30 ft | 1 kts | 92° |
| 2026-04-24 09:42 | 55.62555 | 12.64881 | 30 ft | 0 kts | 95° |